createdAt,value
2024-03-03T00:00:42.918Z,5.32
2024-03-03T00:01:44.633Z,5.30
2024-03-03T00:02:46.328Z,5.33
2024-03-03T00:03:48.201Z,5.33
2024-03-03T00:04:52.966Z,5.33
2024-03-03T00:05:54.662Z,5.33
2024-03-03T00:06:56.314Z,5.33
2024-03-03T00:08:00.313Z,5.33
2024-03-03T00:09:01.978Z,5.33
2024-03-03T00:10:04.548Z,5.33
2024-03-03T00:11:06.403Z,5.33
2024-03-03T00:12:08.648Z,5.34
2024-03-03T00:13:10.477Z,5.34
2024-03-03T00:14:13.082Z,5.34
2024-03-03T00:15:14.812Z,5.34
2024-03-03T00:16:17.248Z,5.35
2024-03-03T00:17:21.375Z,5.36
2024-03-03T00:18:22.971Z,5.37
2024-03-03T00:19:25.154Z,5.36
2024-03-03T00:20:27.453Z,5.38
2024-03-03T00:21:29.252Z,5.37
2024-03-03T00:22:35.185Z,5.38
2024-03-03T00:23:39.995Z,5.39
2024-03-03T00:24:41.971Z,5.38
2024-03-03T00:25:43.806Z,5.39
2024-03-03T00:26:45.591Z,5.38
2024-03-03T00:27:47.936Z,5.37
2024-03-03T00:28:49.615Z,5.36
2024-03-03T00:29:51.693Z,5.36
2024-03-03T00:30:53.758Z,5.34
2024-03-03T00:31:55.826Z,5.35
2024-03-03T00:32:57.857Z,5.36
2024-03-03T00:33:59.745Z,5.36
2024-03-03T00:35:01.619Z,5.36
2024-03-03T00:36:06.837Z,5.37
2024-03-03T00:37:08.642Z,5.40
2024-03-03T00:38:11.346Z,5.40
2024-03-03T00:39:13.996Z,5.39
2024-03-03T00:40:16.674Z,5.38
2024-03-03T00:41:18.625Z,5.38
2024-03-03T00:42:20.415Z,5.39
2024-03-03T00:43:22.256Z,5.39
2024-03-03T00:44:24.484Z,5.39
2024-03-03T00:45:26.125Z,5.41
2024-03-03T00:46:30.031Z,5.41
2024-03-03T00:47:31.777Z,5.38
2024-03-03T00:48:33.666Z,5.40
2024-03-03T00:49:35.618Z,5.39
2024-03-03T00:50:37.570Z,5.38
2024-03-03T00:51:40.320Z,5.39
2024-03-03T00:52:42.385Z,5.40
2024-03-03T00:53:44.330Z,5.39
2024-03-03T00:54:46.579Z,5.41
2024-03-03T00:55:52.985Z,5.41
2024-03-03T00:56:54.654Z,5.41
2024-03-03T00:57:56.497Z,5.41
2024-03-03T00:58:58.342Z,5.40
2024-03-03T01:00:00.511Z,5.39
2024-03-03T01:01:02.907Z,5.39
2024-03-03T01:02:04.686Z,5.40
2024-03-03T01:03:06.659Z,5.40
2024-03-03T01:04:08.704Z,5.40
2024-03-03T01:05:11.141Z,5.39
2024-03-03T01:06:15.556Z,5.40
2024-03-03T01:07:18.107Z,5.40
2024-03-03T01:08:19.804Z,5.40
2024-03-03T01:09:21.556Z,5.40
2024-03-03T01:10:23.366Z,5.40
2024-03-03T01:11:25.261Z,5.41
2024-03-03T01:12:27.127Z,5.40
2024-03-03T01:13:29.422Z,5.40
2024-03-03T01:14:31.880Z,5.39
2024-03-03T01:15:33.771Z,5.38
2024-03-03T01:16:35.995Z,5.37
2024-03-03T01:17:37.677Z,5.37
2024-03-03T01:18:39.461Z,5.35
2024-03-03T01:19:41.193Z,5.35
2024-03-03T01:20:43.208Z,5.35
2024-03-03T01:21:45.597Z,5.34
2024-03-03T01:22:47.510Z,5.35
2024-03-03T01:23:49.333Z,5.33
2024-03-03T01:24:50.971Z,5.33
2024-03-03T01:25:52.761Z,5.34
2024-03-03T01:26:54.992Z,5.33
2024-03-03T01:27:56.737Z,5.33
2024-03-03T01:28:58.823Z,5.34
2024-03-03T01:30:01.178Z,5.34
2024-03-03T01:31:02.856Z,5.33
2024-03-03T01:32:04.969Z,5.33
2024-03-03T01:33:06.974Z,5.34
2024-03-03T01:34:08.701Z,5.34
2024-03-03T01:35:10.569Z,5.33
2024-03-03T01:36:12.474Z,5.30
2024-03-03T01:37:14.467Z,5.32
2024-03-03T01:38:16.217Z,5.33
2024-03-03T01:39:17.923Z,5.31
2024-03-03T01:40:19.712Z,5.31
2024-03-03T01:41:21.392Z,5.32
2024-03-03T01:42:23.143Z,5.31
2024-03-03T01:43:24.823Z,5.30
2024-03-03T01:44:26.476Z,5.30
2024-03-03T01:45:28.199Z,5.30
2024-03-03T01:46:30.221Z,5.30
2024-03-03T01:47:32.994Z,5.30
2024-03-03T01:48:35.741Z,5.28
2024-03-03T01:49:39.947Z,5.29
2024-03-03T01:50:43.061Z,5.28
2024-03-03T01:51:46.188Z,5.26
2024-03-03T01:52:50.723Z,5.27
2024-03-03T01:53:54.457Z,5.26
2024-03-03T01:54:56.812Z,5.26
2024-03-03T01:55:59.844Z,5.25
2024-03-03T01:57:03.999Z,5.24
2024-03-03T01:58:07.578Z,5.23
2024-03-03T01:59:10.914Z,5.22
2024-03-03T02:00:14.787Z,5.22
2024-03-03T02:01:17.018Z,5.19
2024-03-03T02:02:19.367Z,5.21
2024-03-03T02:03:20.969Z,5.20
2024-03-03T02:04:23.124Z,5.20
2024-03-03T02:05:24.836Z,5.20
2024-03-03T02:06:31.506Z,5.20
2024-03-03T02:07:33.828Z,5.21
2024-03-03T02:08:36.939Z,5.22
2024-03-03T02:09:39.870Z,5.20
2024-03-03T02:10:42.434Z,5.20
2024-03-03T02:11:44.430Z,5.20
2024-03-03T02:12:50.382Z,5.22
2024-03-03T02:13:54.110Z,5.21
2024-03-03T02:14:56.426Z,5.22
2024-03-03T02:15:59.129Z,5.20
2024-03-03T02:17:01.076Z,5.23
2024-03-03T02:18:05.220Z,5.22
2024-03-03T02:19:06.916Z,5.22
2024-03-03T02:20:10.410Z,5.22
2024-03-03T02:21:12.150Z,5.23
2024-03-03T02:22:15.019Z,5.24
2024-03-03T02:23:16.664Z,5.25
2024-03-03T02:24:18.589Z,5.25
2024-03-03T02:25:21.746Z,5.25
2024-03-03T02:26:26.543Z,5.27
2024-03-03T02:27:28.562Z,5.28
2024-03-03T02:28:31.219Z,5.28
2024-03-03T02:29:32.982Z,5.27
2024-03-03T02:30:34.914Z,5.27
2024-03-03T02:31:36.926Z,5.27
2024-03-03T02:32:38.980Z,5.28
2024-03-03T02:33:41.179Z,5.27
2024-03-03T02:34:43.100Z,5.26
2024-03-03T02:35:44.787Z,5.25
2024-03-03T02:36:46.862Z,5.24
2024-03-03T02:37:48.944Z,5.24
2024-03-03T02:38:51.361Z,5.22
2024-03-03T02:39:53.265Z,5.21
2024-03-03T02:40:55.492Z,5.20
2024-03-03T02:41:57.752Z,5.20
2024-03-03T02:43:01.705Z,5.19
2024-03-03T02:44:05.734Z,5.17
2024-03-03T02:45:07.954Z,5.15
2024-03-03T02:46:10.028Z,5.15
2024-03-03T02:47:11.644Z,5.14
2024-03-03T02:48:13.351Z,5.14
2024-03-03T02:49:18.676Z,5.13
2024-03-03T02:50:21.339Z,5.12
2024-03-03T02:51:23.044Z,5.12
2024-03-03T02:52:24.772Z,5.11
2024-03-03T02:53:26.470Z,5.08
2024-03-03T02:54:29.520Z,5.07
2024-03-03T02:55:31.153Z,5.05
2024-03-03T02:56:33.062Z,5.03
2024-03-03T02:57:34.770Z,5.01
2024-03-03T02:58:36.440Z,5.00
2024-03-03T02:59:38.450Z,5.00
2024-03-03T03:00:40.325Z,4.99
2024-03-03T03:01:42.147Z,4.97
2024-03-03T03:02:44.155Z,4.95
2024-03-03T03:03:46.086Z,4.94
2024-03-03T03:04:47.988Z,4.93
2024-03-03T03:05:49.841Z,4.92
2024-03-03T03:06:51.559Z,4.89
2024-03-03T03:07:53.588Z,4.90
2024-03-03T03:08:58.211Z,4.91
2024-03-03T03:10:00.351Z,4.90
2024-03-03T03:11:03.714Z,4.91
2024-03-03T03:12:06.041Z,4.91
2024-03-03T03:13:09.278Z,4.90
2024-03-03T03:14:11.552Z,4.92
2024-03-03T03:15:14.304Z,4.91
2024-03-03T03:16:16.356Z,4.92
2024-03-03T03:17:18.009Z,4.91
2024-03-03T03:18:19.627Z,4.91
2024-03-03T03:19:21.557Z,4.92
2024-03-03T03:20:23.306Z,4.92
2024-03-03T03:21:28.499Z,4.92
2024-03-03T03:22:30.592Z,4.93
2024-03-03T03:23:32.794Z,4.93
2024-03-03T03:24:34.736Z,4.94
2024-03-03T03:25:36.333Z,4.94
2024-03-03T03:26:38.135Z,4.96
2024-03-03T03:27:41.465Z,4.98
2024-03-03T03:28:43.153Z,4.98
2024-03-03T03:29:47.006Z,5.00
2024-03-03T03:30:49.156Z,5.01
2024-03-03T03:31:50.986Z,5.02
2024-03-03T03:32:52.881Z,5.02
2024-03-03T03:33:54.573Z,5.03
2024-03-03T03:34:56.220Z,5.04
2024-03-03T03:35:57.979Z,5.04
2024-03-03T03:36:59.657Z,5.06
2024-03-03T03:38:01.275Z,5.07
2024-03-03T03:39:03.018Z,5.07
2024-03-03T03:40:11.539Z,5.07
2024-03-03T03:41:13.392Z,5.06
2024-03-03T03:42:15.440Z,5.06
2024-03-03T03:43:17.091Z,5.06
2024-03-03T03:44:20.687Z,5.07
2024-03-03T03:45:22.301Z,5.05
2024-03-03T03:46:24.467Z,5.08
2024-03-03T03:47:26.181Z,5.07
2024-03-03T03:48:28.159Z,5.08
2024-03-03T03:49:30.514Z,5.08
2024-03-03T03:50:32.167Z,5.09
2024-03-03T03:51:34.009Z,5.10
2024-03-03T03:52:35.768Z,5.10
2024-03-03T03:53:37.664Z,5.11
2024-03-03T03:54:39.597Z,5.11
2024-03-03T03:55:41.309Z,5.11
2024-03-03T03:56:43.249Z,5.11
2024-03-03T03:57:44.896Z,5.11
2024-03-03T03:58:46.510Z,5.12
2024-03-03T03:59:48.507Z,5.11
2024-03-03T04:00:50.383Z,5.11
2024-03-03T04:01:53.596Z,5.12
2024-03-03T04:02:55.828Z,5.11
2024-03-03T04:03:58.819Z,5.12
2024-03-03T04:05:00.593Z,5.11
2024-03-03T04:06:02.325Z,5.13
2024-03-03T04:07:05.660Z,5.13
2024-03-03T04:08:07.654Z,5.11
2024-03-03T04:09:09.430Z,5.12
2024-03-03T04:10:11.221Z,5.12
2024-03-03T04:11:15.088Z,5.12
2024-03-03T04:12:16.763Z,5.12
2024-03-03T04:13:18.922Z,5.11
2024-03-03T04:14:20.706Z,5.11
2024-03-03T04:15:22.753Z,5.11
2024-03-03T04:16:24.528Z,5.13
2024-03-03T04:17:26.292Z,5.13
2024-03-03T04:18:31.845Z,5.14
2024-03-03T04:19:33.839Z,5.13
2024-03-03T04:20:36.999Z,5.13
2024-03-03T04:21:45.596Z,5.14
2024-03-03T04:22:47.320Z,5.13
2024-03-03T04:23:49.307Z,5.12
2024-03-03T04:24:51.015Z,5.13
2024-03-03T04:25:52.823Z,5.13
2024-03-03T04:26:54.570Z,5.13
2024-03-03T04:27:56.346Z,5.14
2024-03-03T04:28:58.013Z,5.14
2024-03-03T04:29:59.648Z,5.14
2024-03-03T04:31:08.173Z,5.15
2024-03-03T04:32:10.454Z,5.13
2024-03-03T04:33:13.931Z,5.13
2024-03-03T04:34:15.762Z,5.12
2024-03-03T04:35:17.720Z,5.12
2024-03-03T04:36:19.406Z,5.12
2024-03-03T04:37:20.996Z,5.12
2024-03-03T04:38:22.687Z,5.11
2024-03-03T04:39:24.353Z,5.11
2024-03-03T04:40:26.043Z,5.11
2024-03-03T04:41:31.881Z,5.11
2024-03-03T04:42:33.845Z,5.10
2024-03-03T04:43:35.548Z,5.10
2024-03-03T04:44:37.501Z,5.08
2024-03-03T04:45:39.338Z,5.08
2024-03-03T04:46:41.040Z,5.07
2024-03-03T04:47:43.243Z,5.07
2024-03-03T04:48:45.411Z,5.06
2024-03-03T04:49:47.431Z,5.06
2024-03-03T04:50:49.292Z,5.05
2024-03-03T04:51:51.065Z,5.04
2024-03-03T04:52:52.818Z,5.03
2024-03-03T04:53:55.937Z,5.02
2024-03-03T04:54:57.601Z,5.03
2024-03-03T04:55:59.384Z,5.02
2024-03-03T04:57:01.935Z,5.00
2024-03-03T04:58:04.286Z,4.97
2024-03-03T04:59:06.501Z,4.94
2024-03-03T05:00:14.508Z,4.94
2024-03-03T05:01:16.281Z,4.93
2024-03-03T05:02:19.652Z,4.91
2024-03-03T05:03:21.444Z,4.90
2024-03-03T05:04:23.084Z,4.89
2024-03-03T05:05:24.789Z,4.88
2024-03-03T05:06:26.416Z,4.87
2024-03-03T05:07:28.883Z,4.87
2024-03-03T05:08:30.819Z,4.85
2024-03-03T05:09:32.614Z,4.85
2024-03-03T05:10:34.386Z,4.82
2024-03-03T05:11:36.902Z,4.82
2024-03-03T05:12:38.657Z,4.79
2024-03-03T05:13:40.633Z,4.75
2024-03-03T05:14:42.212Z,4.73
2024-03-03T05:15:43.962Z,4.70
2024-03-03T05:16:45.877Z,4.68
2024-03-03T05:17:47.788Z,4.65
2024-03-03T05:18:49.915Z,4.62
2024-03-03T05:19:51.818Z,4.60
2024-03-03T05:20:53.509Z,4.58
2024-03-03T05:21:55.670Z,4.56
2024-03-03T05:22:58.451Z,4.54
2024-03-03T05:24:00.331Z,4.51
2024-03-03T05:25:02.038Z,4.48
2024-03-03T05:26:04.317Z,4.46
2024-03-03T05:27:06.069Z,4.45
2024-03-03T05:28:07.740Z,4.42
2024-03-03T05:29:09.494Z,4.40
2024-03-03T05:30:11.504Z,4.39
2024-03-03T05:31:13.263Z,4.39
2024-03-03T05:32:15.016Z,4.35
2024-03-03T05:33:16.621Z,4.35
2024-03-03T05:34:18.960Z,4.34
2024-03-03T05:35:20.749Z,4.32
2024-03-03T05:36:22.541Z,4.30
2024-03-03T05:37:24.854Z,4.30
2024-03-03T05:38:26.485Z,4.29
2024-03-03T05:39:28.586Z,4.26
2024-03-03T05:40:30.547Z,4.26
2024-03-03T05:41:32.150Z,4.23
2024-03-03T05:42:33.944Z,4.23
2024-03-03T05:43:37.734Z,4.22
2024-03-03T05:44:39.572Z,4.20
2024-03-03T05:45:41.754Z,4.18
2024-03-03T05:46:43.962Z,4.16
2024-03-03T05:47:45.706Z,4.15
2024-03-03T05:48:47.798Z,4.13
2024-03-03T05:49:49.466Z,4.11
2024-03-03T05:50:51.558Z,4.10
2024-03-03T05:51:54.000Z,4.07
2024-03-03T05:52:55.738Z,4.04
2024-03-03T05:53:57.454Z,4.03
2024-03-03T05:54:59.351Z,4.00
2024-03-03T05:56:01.020Z,3.99
2024-03-03T05:57:03.010Z,3.98
2024-03-03T05:58:04.948Z,3.97
2024-03-03T05:59:06.642Z,3.96
2024-03-03T06:00:09.893Z,3.97
2024-03-03T06:01:12.565Z,3.97
2024-03-03T06:02:14.348Z,3.97
2024-03-03T06:03:16.086Z,3.96
2024-03-03T06:04:18.976Z,3.98
2024-03-03T06:05:20.735Z,4.01
2024-03-03T06:06:22.388Z,4.01
2024-03-03T06:07:24.151Z,4.05
2024-03-03T06:08:26.541Z,4.07
2024-03-03T06:09:28.235Z,4.08
2024-03-03T06:10:29.889Z,4.09
2024-03-03T06:11:31.540Z,4.13
2024-03-03T06:12:33.437Z,4.13
2024-03-03T06:13:35.924Z,4.16
2024-03-03T06:14:37.612Z,4.17
2024-03-03T06:15:39.674Z,4.19
2024-03-03T06:16:42.249Z,4.20
2024-03-03T06:17:44.125Z,4.22
2024-03-03T06:18:45.892Z,4.21
2024-03-03T06:19:47.841Z,4.23
2024-03-03T06:20:49.571Z,4.23
2024-03-03T06:21:51.839Z,4.24
2024-03-03T06:22:53.938Z,4.24
2024-03-03T06:23:55.752Z,4.24
2024-03-03T06:24:57.723Z,4.25
2024-03-03T06:25:59.469Z,4.27
2024-03-03T06:27:01.146Z,4.27
2024-03-03T06:28:02.950Z,4.26
2024-03-03T06:29:07.208Z,4.28
2024-03-03T06:30:12.230Z,4.28
2024-03-03T06:31:14.239Z,4.28
2024-03-03T06:32:16.354Z,4.29
2024-03-03T06:33:19.577Z,4.29
2024-03-03T06:34:21.436Z,4.28
2024-03-03T06:35:23.216Z,4.30
2024-03-03T06:36:24.844Z,4.30
2024-03-03T06:37:27.630Z,4.30
2024-03-03T06:38:29.535Z,4.30
2024-03-03T06:39:31.866Z,4.28
2024-03-03T06:40:34.044Z,4.27
2024-03-03T06:41:35.741Z,4.28
2024-03-03T06:42:43.915Z,4.27
2024-03-03T06:43:46.467Z,4.27
2024-03-03T06:44:50.923Z,4.27
2024-03-03T06:45:52.823Z,4.27
2024-03-03T06:46:54.484Z,4.27
2024-03-03T06:47:56.126Z,4.26
2024-03-03T06:48:57.848Z,4.25
2024-03-03T06:50:00.786Z,4.24
2024-03-03T06:51:02.708Z,4.23
2024-03-03T06:52:05.021Z,4.24
2024-03-03T06:53:07.119Z,4.26
2024-03-03T06:54:08.925Z,4.31
2024-03-03T06:55:10.917Z,4.32
2024-03-03T06:56:15.331Z,4.36
2024-03-03T06:57:17.005Z,4.39
2024-03-03T06:58:19.047Z,4.42
2024-03-03T06:59:20.734Z,4.46
2024-03-03T07:00:22.637Z,4.49
2024-03-03T07:01:25.080Z,4.52
2024-03-03T07:02:47.118Z,4.56
2024-03-03T07:04:10.590Z,4.58
2024-03-03T07:05:12.595Z,4.62
2024-03-03T07:06:14.550Z,4.64
2024-03-03T07:07:16.296Z,4.67
2024-03-03T07:08:20.315Z,4.70
2024-03-03T07:09:25.087Z,4.73
2024-03-03T07:10:26.893Z,4.78
2024-03-03T07:11:29.680Z,4.79
2024-03-03T07:12:31.430Z,4.82
2024-03-03T07:13:33.487Z,4.84
2024-03-03T07:14:36.402Z,4.86
2024-03-03T07:15:38.170Z,4.88
2024-03-03T07:16:39.832Z,4.91
2024-03-03T07:17:42.719Z,4.94
2024-03-03T07:18:44.546Z,4.97
2024-03-03T07:19:46.409Z,4.99
2024-03-03T07:20:48.832Z,5.01
2024-03-03T07:21:50.814Z,5.02
2024-03-03T07:22:52.738Z,5.05
2024-03-03T07:23:54.797Z,5.06
2024-03-03T07:24:56.466Z,5.09
2024-03-03T07:26:00.521Z,5.12
2024-03-03T07:27:02.210Z,5.13
2024-03-03T07:28:04.623Z,5.18
2024-03-03T07:29:09.205Z,5.22
2024-03-03T07:30:12.803Z,5.25
2024-03-03T07:31:14.548Z,5.27
2024-03-03T07:32:16.173Z,5.30
2024-03-03T07:33:17.908Z,5.33
2024-03-03T07:34:19.663Z,5.34
2024-03-03T07:35:21.285Z,5.36
2024-03-03T07:36:22.977Z,5.39
2024-03-03T07:37:25.272Z,5.41
2024-03-03T07:38:27.317Z,5.43
2024-03-03T07:39:29.272Z,5.45
2024-03-03T07:40:36.939Z,5.46
2024-03-03T07:41:39.009Z,5.48
2024-03-03T07:42:40.737Z,5.51
2024-03-03T07:43:42.873Z,5.53
2024-03-03T07:44:44.541Z,5.54
2024-03-03T07:45:46.230Z,5.56
2024-03-03T07:46:47.947Z,5.58
2024-03-03T07:47:49.810Z,5.60
2024-03-03T07:48:51.518Z,5.61
2024-03-03T07:49:55.668Z,5.62
2024-03-03T07:50:57.705Z,5.66
2024-03-03T07:51:59.989Z,5.68
2024-03-03T07:53:01.907Z,5.69
2024-03-03T07:54:03.809Z,5.70
2024-03-03T07:55:05.880Z,5.74
2024-03-03T07:56:07.769Z,5.75
2024-03-03T07:57:09.436Z,5.76
2024-03-03T07:58:11.128Z,5.79
2024-03-03T07:59:13.858Z,5.80
2024-03-03T08:00:16.284Z,5.81
2024-03-03T08:01:18.067Z,5.84
2024-03-03T08:02:19.960Z,5.86
2024-03-03T08:03:21.750Z,5.87
2024-03-03T08:04:23.839Z,5.90
2024-03-03T08:05:25.521Z,5.92
2024-03-03T08:06:28.316Z,5.93
2024-03-03T08:07:30.203Z,5.93
2024-03-03T08:08:31.802Z,5.96
2024-03-03T08:09:33.902Z,5.96
2024-03-03T08:10:35.859Z,5.97
2024-03-03T08:11:37.976Z,5.98
2024-03-03T08:12:39.941Z,6.00
2024-03-03T08:13:41.888Z,6.02
2024-03-03T08:14:44.044Z,6.03
2024-03-03T08:15:46.208Z,6.04
2024-03-03T08:16:50.067Z,6.06
2024-03-03T08:17:51.696Z,6.09
2024-03-03T08:18:54.591Z,6.11
2024-03-03T08:19:56.222Z,6.12
2024-03-03T08:20:57.925Z,6.14
2024-03-03T08:21:59.654Z,6.18
2024-03-03T08:23:01.292Z,6.19
2024-03-03T08:24:02.963Z,6.23
2024-03-03T08:25:06.579Z,6.23
2024-03-03T08:26:12.529Z,6.26
2024-03-03T08:27:14.362Z,6.29
2024-03-03T08:28:16.078Z,6.31
2024-03-03T08:29:18.842Z,6.33
2024-03-03T08:30:21.139Z,6.35
2024-03-03T08:31:22.912Z,6.37
2024-03-03T08:32:27.556Z,6.40
2024-03-03T08:33:29.435Z,6.42
2024-03-03T08:34:31.702Z,6.45
2024-03-03T08:35:33.692Z,6.47
2024-03-03T08:36:35.513Z,6.48
2024-03-03T08:37:37.469Z,6.50
2024-03-03T08:38:39.837Z,6.54
2024-03-03T08:39:42.073Z,6.55
2024-03-03T08:40:45.701Z,6.58
2024-03-03T08:41:47.350Z,6.59
2024-03-03T08:42:49.479Z,6.62
2024-03-03T08:43:51.192Z,6.64
2024-03-03T08:44:54.904Z,6.66
2024-03-03T08:45:56.573Z,6.69
2024-03-03T08:46:58.870Z,6.71
2024-03-03T08:48:01.406Z,6.74
2024-03-03T08:49:05.415Z,6.77
2024-03-03T08:50:08.033Z,6.79
2024-03-03T08:51:11.079Z,6.80
2024-03-03T08:52:12.899Z,6.82
2024-03-03T08:53:14.691Z,6.86
2024-03-03T08:54:16.257Z,6.88
2024-03-03T08:55:18.158Z,6.91
2024-03-03T08:56:19.811Z,6.91
2024-03-03T08:57:23.045Z,6.94
2024-03-03T08:58:24.741Z,6.97
2024-03-03T08:59:26.517Z,7.00
2024-03-03T09:00:30.257Z,7.01
2024-03-03T09:01:32.007Z,7.05
2024-03-03T09:02:34.038Z,7.09
2024-03-03T09:03:36.175Z,7.11
2024-03-03T09:04:40.846Z,7.13
2024-03-03T09:05:42.835Z,7.15
2024-03-03T09:06:44.842Z,7.19
2024-03-03T09:07:46.563Z,7.22
2024-03-03T09:08:48.994Z,7.25
2024-03-03T09:09:51.052Z,7.27
2024-03-03T09:10:57.873Z,7.30
2024-03-03T09:12:00.612Z,7.33
2024-03-03T09:13:02.307Z,7.36
2024-03-03T09:14:04.564Z,7.39
2024-03-03T09:15:07.536Z,7.43
2024-03-03T09:16:10.416Z,7.47
2024-03-03T09:17:12.090Z,7.50
2024-03-03T09:18:13.896Z,7.53
2024-03-03T09:19:17.155Z,7.58
2024-03-03T09:20:19.289Z,7.61
2024-03-03T09:21:23.867Z,7.63
2024-03-03T09:22:25.690Z,7.68
2024-03-03T09:23:27.570Z,7.70
2024-03-03T09:24:29.210Z,7.74
2024-03-03T09:25:31.125Z,7.74
2024-03-03T09:26:32.812Z,7.77
2024-03-03T09:27:34.496Z,7.78
2024-03-03T09:28:36.353Z,7.81
2024-03-03T09:29:38.037Z,7.86
2024-03-03T09:30:39.734Z,7.89
2024-03-03T09:31:41.339Z,7.90
2024-03-03T09:32:43.095Z,7.93
2024-03-03T09:33:48.009Z,7.96
2024-03-03T09:34:51.189Z,7.99
2024-03-03T09:35:53.793Z,7.98
2024-03-03T09:36:55.512Z,8.02
2024-03-03T09:37:57.237Z,8.06
2024-03-03T09:38:59.048Z,8.08
2024-03-03T09:40:01.536Z,8.11
2024-03-03T09:41:06.595Z,8.16
2024-03-03T09:42:08.954Z,8.18
2024-03-03T09:43:20.604Z,8.22
2024-03-03T09:44:24.659Z,8.27
2024-03-03T09:45:28.976Z,8.29
2024-03-03T09:46:31.902Z,8.33
2024-03-03T09:47:35.517Z,8.34
2024-03-03T09:48:40.404Z,8.39
2024-03-03T09:49:46.327Z,8.43
2024-03-03T09:50:51.558Z,8.44
2024-03-03T09:51:54.450Z,8.49
2024-03-03T09:52:59.204Z,8.52
2024-03-03T09:54:02.870Z,8.53
2024-03-03T09:55:06.280Z,8.57
2024-03-03T09:56:11.770Z,8.57
2024-03-03T09:57:15.149Z,8.59
2024-03-03T09:58:16.967Z,8.63
2024-03-03T09:59:19.228Z,8.66
2024-03-03T10:00:23.736Z,8.68
2024-03-03T10:01:26.997Z,8.70
2024-03-03T10:02:31.531Z,8.73
2024-03-03T10:03:34.424Z,8.74
2024-03-03T10:04:38.824Z,8.77
2024-03-03T10:05:41.856Z,8.82
2024-03-03T10:06:45.547Z,8.83
2024-03-03T10:07:52.057Z,8.84
2024-03-03T10:09:00.638Z,8.87
2024-03-03T10:10:07.051Z,8.85
2024-03-03T10:11:16.042Z,8.86
2024-03-03T10:12:19.366Z,8.87
2024-03-03T10:13:22.286Z,8.87
2024-03-03T10:14:27.367Z,8.93
2024-03-03T10:15:31.061Z,8.94
2024-03-03T10:16:36.781Z,8.94
2024-03-03T10:17:38.805Z,8.97
2024-03-03T10:18:40.635Z,9.01
2024-03-03T10:19:42.830Z,9.04
2024-03-03T10:20:44.478Z,9.09
2024-03-03T10:21:48.997Z,9.14
2024-03-03T10:22:50.881Z,9.18
2024-03-03T10:23:52.685Z,9.22
2024-03-03T10:25:14.183Z,9.26
2024-03-03T10:26:17.271Z,9.28
2024-03-03T10:27:22.754Z,9.32
2024-03-03T10:28:25.088Z,9.38
2024-03-03T10:29:28.470Z,9.39
2024-03-03T10:30:30.769Z,9.39
2024-03-03T10:31:32.544Z,9.44
2024-03-03T10:32:35.602Z,9.48
2024-03-03T10:33:37.400Z,9.48
2024-03-03T10:34:40.237Z,9.52
2024-03-03T10:35:42.508Z,9.55
2024-03-03T10:36:44.386Z,9.57
2024-03-03T10:38:05.323Z,9.61
2024-03-03T10:39:09.540Z,9.64
2024-03-03T10:40:12.392Z,9.66
2024-03-03T10:41:14.367Z,9.68
2024-03-03T10:42:16.177Z,9.66
2024-03-03T10:43:21.430Z,9.65
2024-03-03T10:44:24.861Z,9.70
2024-03-03T10:45:26.485Z,9.75
2024-03-03T10:46:29.018Z,9.82
2024-03-03T10:47:30.848Z,9.82
2024-03-03T10:48:32.872Z,9.85
2024-03-03T10:49:36.916Z,9.88
2024-03-03T10:50:39.360Z,9.94
2024-03-03T10:51:41.172Z,9.96
2024-03-03T10:52:44.300Z,9.99
2024-03-03T10:53:52.806Z,10.05
2024-03-03T10:54:54.982Z,10.07
2024-03-03T10:55:57.049Z,10.09
2024-03-03T10:57:00.500Z,10.15
2024-03-03T10:58:04.029Z,10.20
2024-03-03T10:59:06.110Z,10.24
2024-03-03T11:00:15.544Z,10.26
2024-03-03T11:01:18.225Z,10.25
2024-03-03T11:02:21.628Z,10.26
2024-03-03T11:03:25.364Z,10.29
2024-03-03T11:04:31.797Z,10.29
2024-03-03T11:05:33.887Z,10.33
2024-03-03T11:06:38.404Z,10.37
2024-03-03T11:07:40.538Z,10.36
2024-03-03T11:08:51.062Z,10.39
2024-03-03T11:09:54.327Z,10.43
2024-03-03T11:11:03.934Z,10.47
2024-03-03T11:12:07.809Z,10.52
2024-03-03T11:13:11.715Z,10.51
2024-03-03T11:14:14.216Z,10.53
2024-03-03T11:15:21.593Z,10.54
2024-03-03T11:16:29.526Z,10.55
2024-03-03T11:17:33.899Z,10.52
2024-03-03T11:18:39.516Z,10.52
2024-03-03T11:19:45.906Z,10.54
2024-03-03T11:20:53.733Z,10.55
2024-03-03T11:22:04.601Z,10.58
2024-03-03T11:23:15.028Z,10.63
2024-03-03T11:24:32.897Z,10.65
2024-03-03T11:25:43.818Z,10.68
2024-03-03T11:26:48.145Z,10.70
2024-03-03T11:27:56.712Z,10.70
2024-03-03T11:29:00.599Z,10.70
2024-03-03T11:30:02.751Z,10.68
2024-03-03T11:31:04.947Z,10.72
2024-03-03T11:32:09.699Z,10.74
2024-03-03T11:33:12.661Z,10.76
2024-03-03T11:34:16.411Z,10.79
2024-03-03T11:35:19.361Z,10.83
2024-03-03T11:36:22.758Z,10.89
2024-03-03T11:37:25.846Z,10.93
2024-03-03T11:38:57.889Z,10.98
2024-03-03T11:40:04.758Z,11.02
2024-03-03T11:41:12.016Z,11.05
2024-03-03T11:42:38.705Z,11.06
2024-03-03T11:43:41.947Z,11.08
2024-03-03T11:44:51.882Z,11.10
2024-03-03T11:46:59.499Z,11.12
2024-03-03T11:48:03.832Z,11.19
2024-03-03T11:49:07.285Z,11.22
2024-03-03T11:50:25.612Z,11.28
2024-03-03T11:51:30.847Z,11.26
2024-03-03T11:52:43.819Z,11.25
2024-03-03T11:54:01.675Z,11.25
2024-03-03T11:55:05.118Z,11.28
2024-03-03T11:56:21.378Z,11.31
2024-03-03T11:57:23.937Z,11.35
2024-03-03T11:58:25.775Z,11.36
2024-03-03T11:59:38.700Z,11.41
2024-03-03T12:00:40.711Z,11.42
2024-03-03T12:01:50.543Z,11.47
2024-03-03T12:02:53.788Z,11.52
2024-03-03T12:03:58.010Z,11.59
2024-03-03T12:05:05.298Z,11.58
2024-03-03T12:06:08.820Z,11.60
2024-03-03T12:07:18.585Z,11.61
2024-03-03T12:08:21.735Z,11.65
2024-03-03T12:09:24.709Z,11.69
2024-03-03T12:10:28.956Z,11.71
2024-03-03T12:11:31.782Z,11.73
2024-03-03T12:12:40.035Z,11.70
2024-03-03T12:13:41.700Z,11.72
2024-03-03T12:14:43.982Z,11.73
2024-03-03T12:15:48.055Z,11.77
2024-03-03T12:16:50.632Z,11.77
2024-03-03T12:17:54.071Z,11.77
2024-03-03T12:18:55.916Z,11.79
2024-03-03T12:19:58.290Z,11.83
2024-03-03T12:21:01.808Z,11.85
2024-03-03T12:22:04.344Z,11.90
2024-03-03T12:23:06.148Z,11.93
2024-03-03T12:24:09.295Z,11.96
2024-03-03T12:25:12.011Z,11.96
2024-03-03T12:26:14.369Z,11.95
2024-03-03T12:27:16.079Z,11.96
2024-03-03T12:28:17.974Z,11.96
2024-03-03T12:29:19.642Z,12.00
2024-03-03T12:30:22.888Z,12.05
2024-03-03T12:31:24.663Z,12.08
2024-03-03T12:32:28.719Z,12.13
2024-03-03T12:33:30.464Z,12.18
2024-03-03T12:34:32.248Z,12.19
2024-03-03T12:35:35.017Z,12.19
2024-03-03T12:36:36.878Z,12.23
2024-03-03T12:37:39.879Z,12.26
2024-03-03T12:38:42.957Z,12.30
2024-03-03T12:39:47.460Z,12.30
2024-03-03T12:40:49.432Z,12.31
2024-03-03T12:41:51.157Z,12.30
2024-03-03T12:42:53.956Z,12.27
2024-03-03T12:43:59.738Z,12.23
2024-03-03T12:45:01.405Z,12.23
2024-03-03T12:46:03.580Z,12.25
2024-03-03T12:47:12.860Z,12.28
2024-03-03T12:48:14.648Z,12.29
2024-03-03T12:49:19.426Z,12.30
2024-03-03T12:50:21.518Z,12.30
2024-03-03T12:51:23.599Z,12.36
2024-03-03T12:52:25.649Z,12.30
2024-03-03T12:53:35.212Z,12.31
2024-03-03T12:54:42.993Z,12.29
2024-03-03T12:55:44.783Z,12.24
2024-03-03T12:56:48.318Z,12.20
2024-03-03T12:57:50.271Z,12.18
2024-03-03T12:58:52.874Z,12.16
2024-03-03T12:59:56.254Z,12.10
2024-03-03T13:00:58.045Z,12.13
2024-03-03T13:02:05.085Z,12.12
2024-03-03T13:03:09.340Z,12.13
2024-03-03T13:04:13.072Z,12.14
2024-03-03T13:05:17.092Z,12.17
2024-03-03T13:06:20.622Z,12.17
2024-03-03T13:07:24.200Z,12.12
2024-03-03T13:08:26.121Z,12.13
2024-03-03T13:09:31.825Z,12.13
2024-03-03T13:10:35.996Z,12.13
2024-03-03T13:11:37.875Z,12.16
2024-03-03T13:12:39.501Z,12.17
2024-03-03T13:13:41.632Z,12.20
2024-03-03T13:14:44.829Z,12.22
2024-03-03T13:15:51.046Z,12.23
2024-03-03T13:17:09.262Z,12.16
2024-03-03T13:18:15.588Z,12.11
2024-03-03T13:19:21.380Z,12.11
2024-03-03T13:20:29.212Z,12.13
2024-03-03T13:21:31.343Z,12.15
2024-03-03T13:22:33.787Z,12.11
2024-03-03T13:23:35.646Z,12.10
2024-03-03T13:24:51.283Z,12.08
2024-03-03T13:25:53.787Z,12.03
2024-03-03T13:26:56.811Z,12.00
2024-03-03T13:27:58.841Z,11.96
2024-03-03T13:29:00.869Z,11.93
2024-03-03T13:30:08.080Z,11.92
2024-03-03T13:31:12.499Z,11.89
2024-03-03T13:32:14.744Z,11.89
2024-03-03T13:33:16.451Z,11.89
2024-03-03T13:34:18.083Z,11.84
2024-03-03T13:35:20.230Z,11.79
2024-03-03T13:36:21.963Z,11.79
2024-03-03T13:37:24.256Z,11.75
2024-03-03T13:38:26.252Z,11.75
2024-03-03T13:39:28.014Z,11.77
2024-03-03T13:40:29.861Z,11.77
2024-03-03T13:41:31.476Z,11.73
2024-03-03T13:42:33.816Z,11.74
2024-03-03T13:43:35.557Z,11.73
2024-03-03T13:44:40.213Z,11.72
2024-03-03T13:45:42.072Z,11.66
2024-03-03T13:46:45.249Z,11.57
2024-03-03T13:47:46.909Z,11.48
2024-03-03T13:48:49.046Z,11.44
2024-03-03T13:49:50.803Z,11.44
2024-03-03T13:50:52.926Z,11.42
2024-03-03T13:51:54.705Z,11.44
2024-03-03T13:52:57.427Z,11.42
2024-03-03T13:53:59.358Z,11.41